Terminal Aerodrome Forecast
Issued by NWS Greer, SC

Home | Current Version | Previous Version | Text Only | Print | Product List | Glossary On
Versions: 1 2 3 4 5 6 7 8 9 10 11 12 13 14 15 16 17 18 19
472
FTUS42 KGSP 190526
TAFGSP
TAF
KGSP 190526Z 1906/2006 VRB02KT P6SM BKN250
     FM191500 06006KT P6SM BKN080
     FM192000 12005KT P6SM BKN070 PROB30 2003/2005 4SM -SHRA OVC025
     FM200500 09004KT 5SM -SHRA OVC035=

USA.gov is the U.S. government's official web portal to all federal, state and local government web resources and services.